Time;durP1;ratioP1;P1;durP2;ratioP2;P2;SDS_P1;SDS_P2;PMS_P1;PMS_P2;Temp;Humidity;BMP_temperature;BMP_pressure;BME280_temperature;BME280_humidity;BME280_pressure;Samples;Min_cycle;Max_cycle;Signal;HPM_P1;HPM_P2
2024/01/16 00:02:05;;;;;;;11.20;5.03;;;0.80;99.90;;;;;;2602844;54;20747;31
2024/01/16 00:04:40;;;;;;;14.23;5.45;;;0.80;99.90;;;;;;2602745;54;20264;31
2024/01/16 00:07:15;;;;;;;4.72;2.88;;;0.80;99.90;;;;;;2621474;47;20052;31
2024/01/16 00:09:52;;;;;;;4.18;2.25;;;0.70;99.90;;;;;;2621341;47;20853;31
2024/01/16 00:12:27;;;;;;;2.35;1.10;;;0.60;99.90;;;;;;2602655;54;20033;31
2024/01/16 00:15:02;;;;;;;3.45;1.45;;;0.50;99.90;;;;;;2701240;39;21483;31
2024/01/16 00:17:39;;;;;;;2.60;1.00;;;0.40;99.90;;;;;;2602494;54;20031;31
2024/01/16 00:20:14;;;;;;;4.43;1.53;;;0.40;99.90;;;;;;2602609;54;20886;31
2024/01/16 00:22:49;;;;;;;2.60;0.95;;;0.30;99.90;;;;;;2602670;54;20235;31
2024/01/16 00:25:24;;;;;;;5.35;1.73;;;0.20;99.90;;;;;;2602476;54;20108;31
2024/01/16 00:27:58;;;;;;;2.33;1.00;;;0.20;99.90;;;;;;2621295;47;20889;31
2024/01/16 00:30:33;;;;;;;3.03;1.10;;;0.10;99.90;;;;;;2602567;54;20176;31
2024/01/16 00:33:12;;;;;;;2.45;1.33;;;0.10;99.90;;;;;;2602608;54;20031;31
2024/01/16 00:35:47;;;;;;;6.03;1.40;;;0.10;99.90;;;;;;2602596;54;20038;31
2024/01/16 00:38:22;;;;;;;2.97;1.73;;;0.00;99.90;;;;;;2602521;54;20034;31
2024/01/16 00:40:57;;;;;;;1.90;1.00;;;0.00;99.90;;;;;;2602491;54;20592;31
2024/01/16 00:43:32;;;;;;;3.85;1.25;;;0.00;99.90;;;;;;2602484;54;20035;31
2024/01/16 00:46:07;;;;;;;6.50;1.55;;;0.00;99.90;;;;;;2602402;54;20064;31
2024/01/16 00:48:44;;;;;;;5.32;1.15;;;0.00;99.90;;;;;;2602365;54;20116;31
2024/01/16 00:51:19;;;;;;;4.30;1.00;;;-0.10;99.90;;;;;;2602620;54;20052;31
2024/01/16 00:53:54;;;;;;;5.00;1.40;;;-0.10;99.90;;;;;;2621144;47;20027;31
2024/01/16 00:56:32;;;;;;;2.57;1.30;;;-0.10;99.90;;;;;;2602385;54;21299;31
2024/01/16 00:59:06;;;;;;;4.03;1.40;;;-0.10;99.90;;;;;;2602492;54;20117;31
2024/01/16 01:01:41;;;;;;;4.22;1.48;;;-0.10;99.90;;;;;;2602575;54;20022;31
2024/01/16 01:04:18;;;;;;;5.47;1.20;;;-0.10;99.90;;;;;;2606540;47;20027;31
2024/01/16 01:06:53;;;;;;;4.10;1.53;;;-0.20;99.90;;;;;;2602690;54;20850;31
2024/01/16 01:09:28;;;;;;;3.75;1.10;;;-0.10;99.90;;;;;;2621645;46;21101;31
2024/01/16 01:12:03;;;;;;;3.97;1.05;;;-0.20;99.90;;;;;;2603354;54;19934;31
2024/01/16 01:14:38;;;;;;;8.98;1.20;;;-0.20;99.90;;;;;;2603138;54;20873;31
2024/01/16 01:17:13;;;;;;;6.95;1.75;;;-0.20;99.90;;;;;;2603344;54;20027;31
2024/01/16 01:19:51;;;;;;;5.97;1.00;;;-0.20;99.90;;;;;;2603339;54;20850;31
2024/01/16 01:22:25;;;;;;;6.70;1.80;;;-0.20;99.90;;;;;;2603132;54;20235;31
2024/01/16 01:25:00;;;;;;;2.90;1.13;;;-0.20;99.90;;;;;;2603084;54;20764;31
2024/01/16 01:27:36;;;;;;;6.32;1.10;;;-0.20;99.90;;;;;;2603175;54;20861;31
2024/01/16 01:30:12;;;;;;;4.13;1.38;;;-0.20;99.90;;;;;;2621944;46;20061;31
2024/01/16 01:32:47;;;;;;;2.78;1.40;;;-0.20;99.90;;;;;;2603329;54;20868;31
2024/01/16 01:35:25;;;;;;;4.67;1.47;;;-0.20;99.90;;;;;;2603074;54;20061;31
2024/01/16 01:37:59;;;;;;;6.78;1.45;;;-0.20;99.90;;;;;;2621639;46;20237;31
2024/01/16 01:40:34;;;;;;;1.98;1.00;;;-0.20;99.90;;;;;;2603171;54;20939;31
2024/01/16 01:43:23;;;;;;;6.13;1.48;;;-0.30;99.90;;;;;;2603230;54;20944;31
2024/01/16 01:45:57;;;;;;;4.65;1.35;;;-0.30;99.90;;;;;;2603304;54;20101;31
2024/01/16 01:48:32;;;;;;;5.10;1.20;;;-0.40;99.90;;;;;;2603038;54;20022;31
2024/01/16 01:51:10;;;;;;;6.10;1.40;;;-0.30;99.90;;;;;;2603238;54;20027;31
2024/01/16 01:53:45;;;;;;;3.20;1.30;;;-0.40;99.90;;;;;;2621512;46;20084;31
2024/01/16 01:56:20;;;;;;;4.55;1.17;;;-0.40;99.90;;;;;;2603236;54;20990;31
2024/01/16 01:58:56;;;;;;;3.27;1.23;;;-0.40;99.90;;;;;;2621552;46;20034;31
2024/01/16 02:01:31;;;;;;;4.70;1.27;;;-0.40;99.90;;;;;;2603160;54;21295;31
2024/01/16 02:04:06;;;;;;;3.23;1.47;;;-0.40;99.90;;;;;;2603269;54;20026;31
2024/01/16 02:06:44;;;;;;;4.25;1.50;;;-0.40;99.90;;;;;;2621246;46;20026;31
2024/01/16 02:09:20;;;;;;;5.68;2.05;;;-0.50;99.90;;;;;;2621471;46;20037;31
2024/01/16 02:11:54;;;;;;;5.13;1.63;;;-0.50;99.90;;;;;;2603094;54;20034;31
2024/01/16 02:14:29;;;;;;;4.40;1.60;;;-0.50;99.90;;;;;;2603245;54;20105;31
2024/01/16 02:17:04;;;;;;;8.83;2.47;;;-0.50;99.90;;;;;;2603018;54;20092;31
2024/01/16 02:19:39;;;;;;;5.28;2.35;;;-0.50;99.90;;;;;;2602996;54;20719;31
2024/01/16 02:22:18;;;;;;;5.90;2.10;;;-0.50;99.90;;;;;;2603080;54;20105;31
2024/01/16 02:24:56;;;;;;;5.00;2.75;;;-0.50;99.90;;;;;;2603155;54;20902;31
2024/01/16 02:27:30;;;;;;;5.90;2.35;;;-0.50;99.90;;;;;;2602912;54;20038;31
2024/01/16 02:30:06;;;;;;;7.90;2.20;;;-0.50;99.90;;;;;;2603274;54;20819;31
2024/01/16 02:32:40;;;;;;;6.60;2.90;;;-0.50;99.90;;;;;;2621621;46;20080;31
2024/01/16 02:35:15;;;;;;;5.82;2.08;;;-0.50;99.90;;;;;;2602935;54;20030;31
2024/01/16 02:37:50;;;;;;;5.93;2.28;;;-0.50;99.90;;;;;;2621508;46;20856;31
2024/01/16 02:40:27;;;;;;;6.43;2.53;;;-0.50;99.90;;;;;;2602972;54;20096;31
2024/01/16 02:43:02;;;;;;;7.57;2.10;;;-0.60;99.90;;;;;;2602829;54;20035;31
2024/01/16 02:45:37;;;;;;;4.38;1.63;;;-0.50;99.90;;;;;;2602902;54;20034;31
2024/01/16 02:48:11;;;;;;;6.15;1.65;;;-0.50;99.90;;;;;;2621567;46;20038;31
2024/01/16 02:50:46;;;;;;;4.85;1.70;;;-0.50;99.90;;;;;;2603138;54;20773;31
2024/01/16 02:53:21;;;;;;;6.38;1.48;;;-0.60;99.90;;;;;;2621746;46;20057;31
2024/01/16 02:55:59;;;;;;;4.00;1.60;;;-0.60;99.90;;;;;;2602881;54;20985;31
2024/01/16 02:58:34;;;;;;;3.00;1.15;;;-0.60;99.90;;;;;;2603033;54;20243;31
2024/01/16 03:01:09;;;;;;;4.18;1.50;;;-0.60;99.90;;;;;;2621259;46;20104;31
2024/01/16 03:03:44;;;;;;;5.80;1.80;;;-0.60;99.90;;;;;;2603160;54;20022;31
2024/01/16 03:06:26;;;;;;;6.17;1.83;;;-0.60;99.90;;;;;;2602830;54;20040;31
2024/01/16 03:09:00;;;;;;;5.60;1.90;;;-0.60;99.90;;;;;;2602780;54;20899;31
2024/01/16 03:11:37;;;;;;;6.60;2.05;;;-0.60;99.90;;;;;;2602903;54;20241;31
2024/01/16 03:14:13;;;;;;;4.47;1.98;;;-0.60;99.90;;;;;;2621479;46;20741;31
2024/01/16 03:16:48;;;;;;;5.25;2.28;;;-0.60;99.90;;;;;;2602926;54;20049;31
2024/01/16 03:19:22;;;;;;;6.72;2.28;;;-0.60;99.90;;;;;;2602954;54;20120;31
2024/01/16 03:21:57;;;;;;;9.52;2.65;;;-0.60;99.90;;;;;;2602885;54;20762;31
2024/01/16 03:24:32;;;;;;;6.30;2.00;;;-0.60;99.90;;;;;;2621511;46;20892;31
2024/01/16 03:27:08;;;;;;;7.35;2.30;;;-0.60;99.90;;;;;;2602842;54;20022;31
2024/01/16 03:29:43;;;;;;;5.30;2.40;;;-0.60;99.90;;;;;;2602633;54;20081;31
2024/01/16 03:32:18;;;;;;;7.75;2.67;;;-0.60;99.90;;;;;;2602733;54;20120;31
2024/01/16 03:34:53;;;;;;;5.15;1.95;;;-0.60;99.90;;;;;;2602943;54;20971;31
2024/01/16 03:37:30;;;;;;;9.13;1.92;;;-0.60;99.90;;;;;;2621257;46;20034;31
2024/01/16 03:40:11;;;;;;;6.28;2.35;;;-0.60;99.90;;;;;;2602726;54;20037;31
2024/01/16 03:42:48;;;;;;;4.17;1.70;;;-0.60;99.90;;;;;;2602731;54;20089;31
2024/01/16 03:45:23;;;;;;;3.50;1.38;;;-0.70;99.90;;;;;;2602541;54;20874;31
2024/01/16 03:47:58;;;;;;;7.00;1.20;;;-0.70;99.90;;;;;;2602916;54;20909;31
2024/01/16 03:50:33;;;;;;;2.70;0.90;;;-0.70;99.90;;;;;;2602883;54;20317;31
2024/01/16 03:53:08;;;;;;;6.43;1.80;;;-0.70;99.90;;;;;;2602888;54;20046;31
2024/01/16 03:55:44;;;;;;;3.40;1.20;;;-0.80;99.90;;;;;;2602666;54;20911;31
2024/01/16 03:58:22;;;;;;;4.90;1.00;;;-0.80;99.90;;;;;;2602894;54;20030;31
2024/01/16 04:00:57;;;;;;;5.38;1.33;;;-0.70;99.90;;;;;;2602658;54;20748;31
2024/01/16 04:03:32;;;;;;;8.80;1.23;;;-0.80;99.90;;;;;;2602662;54;20046;31
2024/01/16 04:06:16;;;;;;;5.27;1.30;;;-0.70;99.90;;;;;;2621489;47;20884;31
2024/01/16 04:08:51;;;;;;;4.80;1.33;;;-0.70;99.90;;;;;;2602640;54;20238;31
2024/01/16 04:11:23;;;;;;;5.70;0.80;;;-0.70;99.90;;;;;;2602744;54;22342;31
2024/01/16 04:14:00;;;;;;;9.57;2.15;;;-0.70;99.90;;;;;;2602507;54;20076;31
2024/01/16 04:16:35;;;;;;;4.82;1.40;;;-0.70;99.90;;;;;;2621066;47;20030;31
2024/01/16 04:19:10;;;;;;;4.68;0.88;;;-0.70;99.90;;;;;;2602879;54;20862;31
2024/01/16 04:21:45;;;;;;;2.60;1.13;;;-0.70;99.90;;;;;;2602590;54;20036;31
2024/01/16 04:24:20;;;;;;;2.45;1.20;;;-0.70;99.90;;;;;;2602374;54;20038;31
2024/01/16 04:26:54;;;;;;;4.93;1.27;;;-0.70;99.90;;;;;;2602552;54;20941;31
2024/01/16 04:29:32;;;;;;;6.20;1.20;;;-0.70;99.90;;;;;;2602736;54;20891;31
2024/01/16 04:32:06;;;;;;;3.50;1.40;;;-0.70;99.90;;;;;;2620917;47;20030;31
2024/01/16 04:34:41;;;;;;;2.85;1.00;;;-0.70;99.90;;;;;;2602549;54;20026;31
2024/01/16 04:37:16;;;;;;;3.17;1.20;;;-0.70;99.90;;;;;;2602512;54;20031;31
2024/01/16 04:39:51;;;;;;;2.40;0.80;;;-0.70;99.90;;;;;;2602701;54;20053;31
2024/01/16 04:42:26;;;;;;;5.90;0.80;;;-0.70;99.90;;;;;;2603277;54;20038;31
2024/01/16 04:45:02;;;;;;;2.27;0.93;;;-0.70;99.90;;;;;;2603501;54;20945;31
2024/01/16 04:47:37;;;;;;;4.18;1.00;;;-0.70;99.90;;;;;;2603303;54;20241;31
2024/01/16 04:50:13;;;;;;;1.60;0.60;;;-0.70;99.90;;;;;;2603600;54;20749;31
2024/01/16 04:52:48;;;;;;;3.93;1.00;;;-0.70;99.90;;;;;;2603271;54;20104;31
2024/01/16 04:55:27;;;;;;;2.85;0.88;;;-0.70;99.90;;;;;;2621630;46;20093;31
2024/01/16 04:58:04;;;;;;;2.85;1.00;;;-0.70;99.90;;;;;;2603474;54;20903;31
2024/01/16 05:00:42;;;;;;;2.77;0.80;;;-0.70;99.90;;;;;;2621775;46;20038;31
2024/01/16 05:03:19;;;;;;;1.93;0.90;;;-0.70;99.90;;;;;;2621937;46;20838;31
2024/01/16 05:05:53;;;;;;;2.53;1.15;;;-0.70;99.90;;;;;;2603279;54;20239;31
2024/01/16 05:08:28;;;;;;;2.42;1.13;;;-0.70;99.90;;;;;;2603253;54;20935;31
2024/01/16 05:11:03;;;;;;;4.20;1.40;;;-0.70;99.90;;;;;;2603447;54;20037;31
2024/01/16 05:13:37;;;;;;;2.60;1.02;;;-0.70;99.90;;;;;;2621572;46;20805;31
2024/01/16 05:16:13;;;;;;;12.80;4.25;;;-0.70;99.90;;;;;;2603171;54;20887;31
2024/01/16 05:18:48;;;;;;;19.55;6.85;;;-0.70;99.90;;;;;;2603434;54;20027;31
2024/01/16 05:21:23;;;;;;;7.25;2.40;;;-0.70;99.90;;;;;;2603636;54;20929;31
2024/01/16 05:23:58;;;;;;;6.55;1.67;;;-0.70;99.90;;;;;;2602905;54;20026;31
2024/01/16 05:26:33;;;;;;;3.25;1.27;;;-0.70;99.90;;;;;;2603214;54;20030;31
2024/01/16 05:29:08;;;;;;;7.00;2.33;;;-0.70;99.90;;;;;;2603237;54;20085;31
2024/01/16 05:31:46;;;;;;;8.63;1.83;;;-0.70;99.90;;;;;;2603100;54;20030;31
2024/01/16 05:34:21;;;;;;;9.68;2.90;;;-0.70;99.90;;;;;;2603357;54;20030;31
2024/01/16 05:36:56;;;;;;;8.60;2.55;;;-0.70;99.90;;;;;;2603351;54;20034;31
2024/01/16 05:39:31;;;;;;;6.82;1.42;;;-0.70;99.90;;;;;;2622041;46;20864;31
2024/01/16 05:42:06;;;;;;;2.95;1.23;;;-0.70;99.90;;;;;;2603245;54;20940;31
2024/01/16 05:44:39;;;;;;;8.45;1.90;;;-0.70;99.90;;;;;;2621624;46;22393;31
2024/01/16 05:47:16;;;;;;;3.10;1.60;;;-0.70;99.90;;;;;;2603292;54;20844;31
2024/01/16 05:49:51;;;;;;;3.05;1.40;;;-0.70;99.90;;;;;;2603296;54;20728;31
2024/01/16 05:52:26;;;;;;;2.45;0.90;;;-0.70;99.90;;;;;;2602839;54;20876;31
2024/01/16 05:55:00;;;;;;;2.60;1.00;;;-0.80;99.90;;;;;;2603187;54;20908;31
2024/01/16 05:57:35;;;;;;;2.90;1.20;;;-0.80;99.90;;;;;;2603279;54;20231;31
2024/01/16 06:00:11;;;;;;;2.58;1.10;;;-0.80;99.90;;;;;;2603282;54;20785;31
2024/01/16 06:02:48;;;;;;;4.28;1.67;;;-0.80;99.90;;;;;;2603120;54;20953;31
2024/01/16 06:05:24;;;;;;;9.00;1.58;;;-0.90;99.90;;;;;;2603157;54;20085;31
2024/01/16 06:07:59;;;;;;;6.45;1.60;;;-0.90;99.90;;;;;;2603028;54;20867;31
2024/01/16 06:10:34;;;;;;;2.60;1.25;;;-0.90;99.90;;;;;;2603273;54;20759;31
2024/01/16 06:13:09;;;;;;;4.87;1.60;;;-0.90;99.90;;;;;;2603062;54;20880;31
2024/01/16 06:15:44;;;;;;;7.20;2.20;;;-0.90;99.90;;;;;;2603050;54;21119;31
2024/01/16 06:18:21;;;;;;;5.88;2.15;;;-0.90;99.90;;;;;;2603247;54;21079;31
2024/01/16 06:20:56;;;;;;;6.22;3.25;;;-0.90;99.90;;;;;;2603031;54;20036;31
2024/01/16 06:23:31;;;;;;;8.38;3.70;;;-0.90;99.90;;;;;;2621224;46;20831;31
2024/01/16 06:26:06;;;;;;;8.77;4.07;;;-1.00;99.90;;;;;;2603274;54;20868;31
2024/01/16 06:28:42;;;;;;;7.53;3.63;;;-0.90;99.90;;;;;;2621325;46;20864;31
2024/01/16 06:31:14;;;;;;;;;;;-0.90;99.90;;;;;;2603438;54;22634;31
2024/01/16 06:33:51;;;;;;;14.38;6.55;;;-1.00;99.90;;;;;;2603002;54;20790;31
2024/01/16 06:36:26;;;;;;;9.60;5.45;;;-0.90;99.90;;;;;;2603119;54;20026;31
2024/01/16 06:39:01;;;;;;;15.68;5.90;;;-0.90;99.90;;;;;;2602875;54;20757;31
2024/01/16 06:41:36;;;;;;;15.43;7.47;;;-0.90;99.90;;;;;;2603108;54;20049;31
2024/01/16 06:44:11;;;;;;;14.40;6.90;;;-1.00;99.90;;;;;;2603374;54;20750;31
2024/01/16 06:46:46;;;;;;;11.93;7.07;;;-1.00;99.90;;;;;;2602948;54;20907;31
2024/01/16 06:49:24;;;;;;;10.13;6.25;;;-1.00;99.90;;;;;;2603037;54;20102;31
2024/01/16 06:51:58;;;;;;;10.30;4.57;;;-1.10;99.90;;;;;;2603016;54;20086;31
2024/01/16 06:54:33;;;;;;;12.57;5.72;;;-1.10;99.90;;;;;;2602999;54;20030;31
2024/01/16 06:57:08;;;;;;;11.88;5.43;;;-1.10;99.90;;;;;;2603044;54;20034;31
2024/01/16 06:59:43;;;;;;;8.73;4.80;;;-1.10;99.90;;;;;;2602936;54;20034;31
2024/01/16 07:02:18;;;;;;;14.00;6.15;;;-1.00;99.90;;;;;;2603001;54;20081;31
2024/01/16 07:04:56;;;;;;;17.90;7.45;;;-1.00;99.90;;;;;;2603060;54;20143;31
2024/01/16 07:07:33;;;;;;;19.45;8.38;;;-1.00;99.90;;;;;;2603014;54;20910;31
2024/01/16 07:10:13;;;;;;;17.13;8.20;;;-1.00;99.90;;;;;;2621337;46;20030;31
2024/01/16 07:12:49;;;;;;;20.75;9.13;;;-1.10;99.90;;;;;;2603014;54;20026;31
2024/01/16 07:15:23;;;;;;;22.33;9.15;;;-1.10;99.90;;;;;;2621138;46;20755;31
2024/01/16 07:17:58;;;;;;;20.70;8.52;;;-1.10;99.90;;;;;;2603039;54;20026;31
2024/01/16 07:20:34;;;;;;;21.70;8.60;;;-1.10;99.90;;;;;;2621325;46;22356;31
2024/01/16 07:23:08;;;;;;;14.90;7.90;;;-1.00;99.90;;;;;;2621518;46;20049;31
2024/01/16 07:25:44;;;;;;;13.27;6.22;;;-1.00;99.90;;;;;;2602749;54;20052;31
2024/01/16 07:28:21;;;;;;;16.67;6.43;;;-1.00;99.90;;;;;;2603011;54;20879;31
2024/01/16 07:30:57;;;;;;;15.45;7.20;;;-1.00;99.90;;;;;;2602740;54;20739;31
2024/01/16 07:33:31;;;;;;;21.95;7.30;;;-1.00;99.90;;;;;;2621314;46;20093;31
2024/01/16 07:36:10;;;;;;;11.03;5.77;;;-1.00;99.90;;;;;;2602838;54;20870;31
2024/01/16 07:38:45;;;;;;;7.45;3.05;;;-1.00;99.90;;;;;;2602828;54;20246;31
2024/01/16 07:41:20;;;;;;;8.70;2.92;;;-0.90;99.90;;;;;;2602770;54;20055;31
2024/01/16 07:43:55;;;;;;;7.75;2.45;;;-0.90;99.90;;;;;;2603071;54;20892;31
2024/01/16 07:46:30;;;;;;;8.97;2.10;;;-0.90;99.90;;;;;;2602851;54;20838;31
2024/01/16 07:49:05;;;;;;;5.07;2.23;;;-0.80;99.90;;;;;;2603032;54;20873;31
2024/01/16 07:51:42;;;;;;;7.05;2.85;;;-0.80;99.90;;;;;;2602763;54;20263;31
2024/01/16 07:54:18;;;;;;;3.80;1.73;;;-0.70;99.90;;;;;;2602821;54;20053;31
2024/01/16 07:56:53;;;;;;;5.35;1.70;;;-0.70;99.90;;;;;;2602826;54;20072;31
2024/01/16 07:59:28;;;;;;;2.55;1.48;;;-0.60;99.90;;;;;;2602799;54;20030;31
2024/01/16 08:02:05;;;;;;;5.00;1.77;;;-0.60;99.90;;;;;;2602781;54;20030;31
2024/01/16 08:04:41;;;;;;;3.45;1.88;;;-0.50;99.90;;;;;;2602682;54;20128;31
2024/01/16 08:07:18;;;;;;;;;;;-0.50;99.90;;;;;;2602887;54;20026;31
2024/01/16 08:09:53;;;;;;;4.75;2.60;;;-0.50;99.90;;;;;;2602724;54;19993;31
2024/01/16 08:12:28;;;;;;;8.50;3.08;;;-0.50;99.90;;;;;;2621063;47;20043;31
2024/01/16 08:15:03;;;;;;;5.20;2.95;;;-0.40;99.90;;;;;;2602592;54;20037;31
2024/01/16 08:17:39;;;;;;;8.83;4.67;;;-0.40;99.90;;;;;;2603565;54;20769;31
2024/01/16 08:20:17;;;;;;;11.53;4.57;;;-0.40;99.90;;;;;;2603405;54;20031;31
2024/01/16 08:22:53;;;;;;;8.95;4.78;;;-0.30;99.90;;;;;;2603360;54;20148;31
2024/01/16 08:25:28;;;;;;;7.13;4.27;;;-0.30;99.90;;;;;;2621815;46;20030;31
2024/01/16 08:28:04;;;;;;;7.40;3.70;;;-0.30;99.90;;;;;;2603619;54;20749;31
2024/01/16 08:30:39;;;;;;;8.45;3.33;;;-0.30;99.90;;;;;;2621636;46;20031;31
2024/01/16 08:33:15;;;;;;;9.32;4.85;;;-0.30;99.90;;;;;;2603304;54;20171;31
2024/01/16 08:35:49;;;;;;;9.35;4.82;;;-0.30;99.90;;;;;;2603278;54;20038;31
2024/01/16 08:38:27;;;;;;;10.43;4.80;;;-0.30;99.90;;;;;;2603399;54;20895;31
2024/01/16 08:41:06;;;;;;;8.85;4.55;;;-0.20;99.90;;;;;;2603268;54;20328;31
2024/01/16 08:43:40;;;;;;;10.40;4.73;;;-0.10;99.90;;;;;;2603536;54;20865;31
2024/01/16 08:46:15;;;;;;;10.40;4.30;;;-0.10;99.90;;;;;;2603337;54;20288;31
2024/01/16 08:48:50;;;;;;;8.77;3.70;;;-0.10;99.90;;;;;;2603364;54;20072;31
2024/01/16 08:51:25;;;;;;;7.93;3.60;;;0.00;99.90;;;;;;2603357;54;20038;31
2024/01/16 08:54:03;;;;;;;7.33;4.03;;;0.00;99.90;;;;;;2603523;54;20858;31
2024/01/16 08:56:37;;;;;;;11.05;5.32;;;0.00;99.90;;;;;;2603271;54;20271;31
2024/01/16 08:59:12;;;;;;;9.75;3.63;;;0.10;99.90;;;;;;2603334;54;20053;31
2024/01/16 09:01:47;;;;;;;5.25;2.70;;;0.20;99.90;;;;;;2603496;54;20759;31
2024/01/16 09:04:22;;;;;;;4.47;2.27;;;0.20;99.90;;;;;;2603355;54;20034;31
2024/01/16 09:06:57;;;;;;;4.53;2.78;;;0.30;99.90;;;;;;2603102;54;20097;31
2024/01/16 09:09:35;;;;;;;5.65;2.90;;;0.30;99.90;;;;;;2603354;54;20056;31
2024/01/16 09:12:09;;;;;;;5.38;2.20;;;0.50;99.90;;;;;;2603200;54;20033;31
2024/01/16 09:14:45;;;;;;;6.13;1.90;;;0.50;99.90;;;;;;2622013;46;20847;31
2024/01/16 09:17:20;;;;;;;;;;;0.40;99.90;;;;;;2603566;54;20037;31
2024/01/16 09:19:56;;;;;;;6.55;2.10;;;0.50;99.90;;;;;;2621907;46;20720;31
2024/01/16 09:22:30;;;;;;;7.07;2.20;;;0.40;99.90;;;;;;2764835;31;20046;31
2024/01/16 09:25:08;;;;;;;5.22;2.22;;;0.50;99.90;;;;;;2603409;54;20858;31
2024/01/16 09:27:43;;;;;;;4.32;2.17;;;0.50;99.90;;;;;;2602998;54;20750;31
2024/01/16 09:30:19;;;;;;;5.75;2.08;;;0.70;99.90;;;;;;2621584;46;20952;31
2024/01/16 09:32:53;;;;;;;3.95;1.50;;;0.90;99.90;;;;;;2603131;54;20856;31
2024/01/16 09:35:28;;;;;;;5.82;1.40;;;1.00;99.90;;;;;;2603244;54;20115;31
2024/01/16 09:38:04;;;;;;;5.15;2.00;;;1.20;99.90;;;;;;2621515;46;20033;31
2024/01/16 09:40:42;;;;;;;4.50;1.67;;;1.20;99.90;;;;;;2621640;46;20026;31
2024/01/16 09:43:16;;;;;;;5.30;1.83;;;1.20;99.90;;;;;;2603235;54;20931;31
2024/01/16 09:45:51;;;;;;;4.17;1.73;;;1.10;97.60;;;;;;2603184;54;21066;31
2024/01/16 09:48:26;;;;;;;3.20;1.70;;;1.10;95.70;;;;;;2603268;54;21178;31
2024/01/16 09:51:01;;;;;;;6.07;1.53;;;1.00;95.10;;;;;;2603232;54;20031;31
2024/01/16 09:53:36;;;;;;;5.82;2.03;;;1.00;98.80;;;;;;2603280;54;21079;31
2024/01/16 09:56:17;;;;;;;5.05;2.30;;;1.10;99.90;;;;;;2621677;46;20034;31
2024/01/16 09:58:52;;;;;;;6.03;2.60;;;1.10;99.90;;;;;;2603259;54;20033;31
2024/01/16 10:01:26;;;;;;;5.85;1.90;;;1.20;99.90;;;;;;2603146;54;20027;31
2024/01/16 10:04:01;;;;;;;4.32;2.35;;;1.20;99.90;;;;;;2621458;46;20831;31
2024/01/16 10:06:36;;;;;;;5.70;2.53;;;1.20;99.50;;;;;;2603109;54;20103;31
2024/01/16 10:09:12;;;;;;;7.70;3.53;;;1.20;99.50;;;;;;2621508;46;20037;31
2024/01/16 10:11:49;;;;;;;7.93;2.67;;;1.20;99.30;;;;;;2603187;54;20033;31
2024/01/16 10:14:23;;;;;;;6.05;2.90;;;1.10;97.00;;;;;;2603260;54;20033;31
2024/01/16 10:16:59;;;;;;;6.55;3.22;;;1.00;99.90;;;;;;2621522;46;20038;31
2024/01/16 10:19:34;;;;;;;8.20;2.67;;;1.10;99.90;;;;;;2602978;54;20027;31
2024/01/16 10:22:25;;;;;;;6.95;2.63;;;1.10;99.90;;;;;;2603257;54;20946;31
2024/01/16 10:25:08;;;;;;;5.85;2.35;;;1.10;99.90;;;;;;2603026;54;20786;31
2024/01/16 10:27:46;;;;;;;4.13;1.75;;;1.00;99.90;;;;;;2603009;54;20031;31
2024/01/16 10:30:26;;;;;;;7.03;2.63;;;1.00;99.90;;;;;;2603027;54;20027;31
2024/01/16 10:33:19;;;;;;;6.40;2.40;;;1.00;99.90;;;;;;2603035;54;20030;31
2024/01/16 10:35:54;;;;;;;6.15;1.70;;;0.90;99.90;;;;;;2607006;46;20780;31
2024/01/16 10:38:29;;;;;;;4.28;1.60;;;0.80;99.90;;;;;;2602920;54;20849;31
2024/01/16 10:41:13;;;;;;;5.22;2.00;;;0.80;99.90;;;;;;2603167;54;20026;31
2024/01/16 10:43:51;;;;;;;6.20;1.90;;;0.80;99.90;;;;;;2621209;46;20820;31
2024/01/16 10:46:25;;;;;;;5.95;2.60;;;0.80;99.90;;;;;;2603003;54;20911;31
2024/01/16 10:49:04;;;;;;;5.15;2.40;;;0.80;99.90;;;;;;2602883;54;20034;31
2024/01/16 10:51:39;;;;;;;4.28;1.80;;;0.80;99.90;;;;;;2602964;54;20035;31
2024/01/16 10:54:15;;;;;;;3.80;1.42;;;0.70;99.90;;;;;;2602971;54;20850;31
2024/01/16 10:56:50;;;;;;;3.80;1.35;;;0.70;99.90;;;;;;2621347;46;20034;31
2024/01/16 10:59:28;;;;;;;5.07;1.60;;;0.70;99.90;;;;;;2602914;54;20785;31
2024/01/16 11:02:03;;;;;;;6.55;1.80;;;0.70;99.90;;;;;;2603110;54;20826;31
2024/01/16 11:04:37;;;;;;;6.45;2.03;;;0.70;99.60;;;;;;2621481;46;20890;31
2024/01/16 11:07:12;;;;;;;6.63;2.87;;;0.80;99.90;;;;;;2602969;54;20895;31
2024/01/16 11:09:47;;;;;;;5.97;2.95;;;0.80;99.90;;;;;;2602974;54;20234;31
2024/01/16 11:12:22;;;;;;;6.20;2.95;;;0.90;99.90;;;;;;2603055;54;20893;31
2024/01/16 11:15:12;;;;;;;5.73;2.87;;;0.90;99.90;;;;;;2602879;54;20032;31
2024/01/16 11:17:49;;;;;;;7.53;3.08;;;1.00;99.90;;;;;;2602776;54;20022;31
2024/01/16 11:20:25;;;;;;;5.68;3.05;;;1.10;99.90;;;;;;2603038;54;20903;31
2024/01/16 11:23:19;;;;;;;6.10;3.35;;;1.20;99.30;;;;;;2621237;46;20089;31
2024/01/16 11:25:52;;;;;;;6.10;3.17;;;1.10;99.90;;;;;;2701435;39;21150;31
2024/01/16 11:28:30;;;;;;;6.68;2.88;;;1.20;99.90;;;;;;2602756;54;20052;31
2024/01/16 11:31:29;;;;;;;7.90;3.20;;;1.10;99.90;;;;;;2602858;54;20741;31
2024/01/16 11:34:04;;;;;;;10.45;3.05;;;1.20;99.90;;;;;;2602766;54;20030;31
2024/01/16 11:36:54;;;;;;;5.07;2.55;;;1.10;99.70;;;;;;2621499;46;20056;31
2024/01/16 11:39:30;;;;;;;6.25;2.92;;;1.00;99.90;;;;;;2621296;46;20101;31
2024/01/16 11:42:08;;;;;;;6.65;3.60;;;1.00;99.90;;;;;;2621062;46;20050;31
2024/01/16 11:44:46;;;;;;;6.78;2.88;;;1.00;99.90;;;;;;2621359;46;20030;31
2024/01/16 11:47:23;;;;;;;5.55;2.88;;;1.00;99.90;;;;;;2608063;46;21132;31
2024/01/16 11:50:11;;;;;;;4.70;2.75;;;0.90;99.90;;;;;;2602868;54;20032;31
2024/01/16 11:52:47;;;;;;;8.10;3.50;;;0.80;99.90;;;;;;2602727;54;20815;31
2024/01/16 11:55:30;;;;;;;10.60;3.50;;;0.70;99.90;;;;;;2719713;39;21170;31
2024/01/16 11:58:35;;;;;;;8.13;3.15;;;0.70;99.90;;;;;;2602688;54;20123;31
2024/01/16 12:01:11;;;;;;;7.40;2.90;;;0.60;99.90;;;;;;2602698;54;20880;31
2024/01/16 12:03:49;;;;;;;7.20;3.05;;;0.50;99.90;;;;;;2602650;54;20030;31
2024/01/16 12:06:23;;;;;;;4.65;2.00;;;0.40;99.90;;;;;;2602943;54;20030;31
2024/01/16 12:09:10;;;;;;;7.95;2.58;;;0.40;99.90;;;;;;2602667;54;20792;31
2024/01/16 12:11:45;;;;;;;4.50;1.90;;;0.40;99.90;;;;;;2602668;54;20938;31
2024/01/16 12:14:20;;;;;;;3.60;2.00;;;0.30;99.90;;;;;;2602665;54;20931;31
2024/01/16 12:16:56;;;;;;;4.55;1.70;;;0.20;99.90;;;;;;2602742;54;20163;31
2024/01/16 12:19:31;;;;;;;3.63;1.70;;;0.20;99.90;;;;;;2602636;54;20858;31
2024/01/16 12:22:10;;;;;;;5.50;1.48;;;0.20;99.90;;;;;;2602825;54;20147;31
2024/01/16 12:24:45;;;;;;;5.05;2.05;;;0.20;99.90;;;;;;2602892;54;20057;31
2024/01/16 12:27:20;;;;;;;3.97;2.05;;;0.30;99.90;;;;;;2602636;54;20026;31
2024/01/16 12:30:08;;;;;;;9.27;3.83;;;0.20;99.90;;;;;;2602806;54;20027;31
2024/01/16 12:32:43;;;;;;;11.60;5.18;;;0.30;99.90;;;;;;2602786;54;20088;31
2024/01/16 12:35:24;;;;;;;7.95;3.47;;;0.30;99.90;;;;;;2602541;54;20037;31
2024/01/16 12:38:09;;;;;;;18.47;6.70;;;0.30;99.90;;;;;;2621123;47;20116;31
2024/01/16 12:40:52;;;;;;;13.85;6.15;;;0.30;99.90;;;;;;2602839;54;20332;31
2024/01/16 12:45:58;;;;;;;8.02;3.78;;;0.40;99.90;;;;;;2602702;54;20857;31
2024/01/16 12:48:33;;;;;;;7.82;3.42;;;0.40;99.90;;;;;;2602832;54;20036;31
2024/01/16 12:51:09;;;;;;;5.90;3.00;;;0.40;99.90;;;;;;2602783;54;20739;31
2024/01/16 12:53:46;;;;;;;;;;;0.40;99.90;;;;;;2602822;54;20053;31
2024/01/16 12:56:22;;;;;;;4.95;2.20;;;0.50;99.90;;;;;;2621104;47;20736;31
2024/01/16 12:59:14;;;;;;;7.80;3.58;;;0.50;99.90;;;;;;2602386;54;20952;31
2024/01/16 13:01:49;;;;;;;8.50;3.75;;;0.50;99.90;;;;;;2602771;54;20080;31
2024/01/16 13:04:24;;;;;;;10.03;3.70;;;0.50;99.90;;;;;;2603344;54;20030;31
2024/01/16 13:07:05;;;;;;;5.10;2.47;;;0.50;99.90;;;;;;2621624;46;20111;31
2024/01/16 13:09:43;;;;;;;7.65;3.67;;;0.40;99.90;;;;;;2603426;54;20904;31
2024/01/16 13:12:23;;;;;;;9.10;3.25;;;0.40;99.90;;;;;;2603502;54;20899;31
2024/01/16 13:14:58;;;;;;;8.02;3.58;;;0.40;99.90;;;;;;2602982;54;20033;31
2024/01/16 13:17:33;;;;;;;6.90;3.45;;;0.40;99.90;;;;;;2603374;54;20038;31
2024/01/16 13:20:14;;;;;;;8.25;3.75;;;0.40;99.90;;;;;;2603258;54;20113;31
2024/01/16 13:22:49;;;;;;;7.07;3.85;;;0.30;99.90;;;;;;2603263;54;20905;31
2024/01/16 13:25:29;;;;;;;8.10;4.75;;;0.30;99.90;;;;;;2603178;54;20033;31
2024/01/16 13:28:06;;;;;;;10.85;4.75;;;0.30;99.90;;;;;;2603179;54;20147;31
2024/01/16 13:30:41;;;;;;;13.23;5.10;;;0.30;99.90;;;;;;2603363;54;20883;31
2024/01/16 13:33:21;;;;;;;14.55;5.72;;;0.30;99.90;;;;;;2603222;54;20247;31
2024/01/16 13:35:57;;;;;;;11.33;5.17;;;0.30;99.90;;;;;;2621772;46;20027;31
2024/01/16 13:38:32;;;;;;;10.68;6.05;;;0.20;99.90;;;;;;2603194;54;20898;31
2024/01/16 13:41:11;;;;;;;9.45;4.95;;;0.20;99.90;;;;;;2603149;54;20038;31
2024/01/16 13:43:45;;;;;;;6.82;3.97;;;0.20;99.90;;;;;;2603193;54;20026;31
2024/01/16 13:46:22;;;;;;;9.23;4.13;;;0.20;99.90;;;;;;2603370;54;20899;31
2024/01/16 13:49:17;;;;;;;7.00;3.65;;;0.20;99.90;;;;;;2603460;54;20257;31
2024/01/16 13:51:52;;;;;;;5.97;3.03;;;0.20;99.90;;;;;;2621551;46;20960;31